Time;durP1;ratioP1;P1;durP2;ratioP2;P2;SDS_P1;SDS_P2;PMS_P1;PMS_P2;Temp;Humidity;BMP_temperature;BMP_pressure;BME280_temperature;BME280_humidity;BME280_pressure;Samples;Min_cycle;Max_cycle;Signal;HPM_P1;HPM_P2
2023/03/26 00:03:56;;;;;;;37.53;7.80;;;;;;;8.19;100.00;100625.59;5228147;28;20041;-75
2023/03/26 00:06:30;;;;;;;35.03;8.37;;;;;;;8.09;100.00;100621.78;5234238;28;20044;-74
2023/03/26 00:09:01;;;;;;;45.95;9.40;;;;;;;7.90;100.00;100607.13;5230134;28;20032;-74
2023/03/26 00:11:33;;;;;;;36.63;7.67;;;;;;;8.15;100.00;100636.28;5233472;28;20025;-75
2023/03/26 00:14:04;;;;;;;33.73;8.20;;;;;;;7.98;100.00;100619.75;5227486;28;20054;-76
2023/03/26 00:16:36;;;;;;;36.13;7.43;;;;;;;7.98;100.00;100617.97;5234104;28;20040;-76
2023/03/26 00:19:08;;;;;;;36.47;7.60;;;;;;;8.05;100.00;100628.94;5233284;28;20063;-74
2023/03/26 00:21:40;;;;;;;38.37;8.70;;;;;;;7.76;100.00;100586.97;5232790;28;20033;-75
2023/03/26 00:24:16;;;;;;;26.27;7.23;;;;;;;7.89;100.00;100610.63;5232974;28;20665;-76
2023/03/26 00:26:51;;;;;;;43.03;8.50;;;;;;;7.71;100.00;100583.75;5234468;28;20057;-76
2023/03/26 00:29:23;;;;;;;40.93;7.47;;;;;;;7.72;100.00;100581.06;5233699;28;20043;-76
2023/03/26 00:31:55;;;;;;;38.97;7.73;;;;;;;7.94;100.00;100619.06;5234748;28;20041;-76
2023/03/26 00:34:26;;;;;;;33.93;8.27;;;;;;;7.82;100.00;100598.84;5233811;28;20377;-75
2023/03/26 00:37:01;;;;;;;30.07;6.53;;;;;;;7.93;100.00;100609.56;5234194;28;20544;-75
2023/03/26 00:39:34;;;;;;;33.83;6.93;;;;;;;7.95;100.00;100612.94;5234318;28;20040;-75
2023/03/26 00:42:07;;;;;;;43.87;7.73;;;;;;;7.83;100.00;100610.97;5234426;28;20033;-75
2023/03/26 00:44:38;;;;;;;39.90;9.13;;;;;;;7.84;100.00;100610.03;5233238;28;20458;-76
2023/03/26 00:47:09;;;;;;;30.20;7.03;;;;;;;7.88;100.00;100614.16;5230826;28;20064;-75
2023/03/26 00:49:41;;;;;;;39.13;8.20;;;;;;;7.89;100.00;100604.59;5233344;28;20052;-75
2023/03/26 00:52:13;;;;;;;34.70;8.57;;;;;;;7.80;100.00;100603.31;5234608;28;20504;-75
2023/03/26 00:54:56;;;;;;;35.87;6.67;;;;;;;7.76;100.00;100589.59;5234617;28;20033;-75
2023/03/26 00:57:29;;;;;;;34.97;7.13;;;;;;;7.77;100.00;100603.47;5233955;28;20029;-74
2023/03/26 01:00:14;;;;;;;29.73;7.43;;;;;;;7.74;100.00;100581.00;5234539;28;20036;-74
2023/03/26 01:02:46;;;;;;;37.43;8.03;;;;;;;7.65;100.00;100571.03;5233106;28;20033;-75
2023/03/26 01:05:41;;;;;;;46.20;8.47;;;;;;;7.89;100.00;100594.97;5234769;28;20037;-75
2023/03/26 01:08:32;;;;;;;43.60;8.27;;;;;;;7.75;100.00;100573.09;5236534;28;20025;-76
2023/03/26 01:11:15;;;;;;;40.70;8.63;;;;;;;7.72;100.00;100565.44;5239041;28;20079;-75
2023/03/26 01:13:54;;;;;;;37.40;6.73;;;;;;;7.77;100.00;100570.41;5241860;28;20100;-74
2023/03/26 01:16:36;;;;;;;27.80;6.90;;;;;;;7.74;100.00;100566.22;5241195;28;20093;-75
2023/03/26 01:19:25;;;;;;;39.70;7.40;;;;;;;7.73;100.00;100561.06;5246235;28;20062;-74
2023/03/26 01:21:57;;;;;;;29.20;6.07;;;;;;;7.71;100.00;100555.09;5244830;28;20962;-75
2023/03/26 01:24:29;;;;;;;28.23;6.53;;;;;;;7.61;100.00;100545.13;5244432;28;20045;-75
2023/03/26 01:27:24;;;;;;;36.53;7.40;;;;;;;7.75;100.00;100549.63;5253604;28;20025;-74
2023/03/26 01:30:04;;;;;;;30.67;6.95;;;;;;;7.53;100.00;100546.47;5261325;28;20018;-74
2023/03/26 01:32:50;;;;;;;32.97;5.97;;;;;;;7.55;100.00;100531.59;5250139;28;20075;-75
2023/03/26 01:35:33;;;;;;;37.40;7.47;;;;;;;7.67;100.00;100538.78;5239783;28;20048;-75
2023/03/26 01:38:28;;;;;;;37.27;7.70;;;;;;;7.67;100.00;100537.91;5238606;28;20025;-74
2023/03/26 01:41:19;;;;;;;31.83;6.13;;;;;;;7.66;100.00;100526.66;5236964;28;20051;-75
2023/03/26 01:44:02;;;;;;;32.60;7.03;;;;;;;7.54;100.00;100515.09;5235611;28;20025;-76
2023/03/26 01:46:35;;;;;;;29.87;6.93;;;;;;;7.62;100.00;100532.97;5235581;28;20025;-75
2023/03/26 01:49:11;;;;;;;36.37;8.37;;;;;;;7.62;100.00;100527.75;5236230;28;20094;-75
2023/03/26 01:51:43;;;;;;;28.03;6.80;;;;;;;7.60;100.00;100522.63;5237218;28;20111;-74
2023/03/26 01:54:20;;;;;;;30.73;6.53;;;;;;;7.52;100.00;100522.19;5236357;28;20022;-75
2023/03/26 01:57:02;;;;;;;41.00;7.37;;;;;;;7.46;100.00;100512.06;5236508;28;20064;-75
2023/03/26 01:59:52;;;;;;;35.63;8.37;;;;;;;7.45;100.00;100516.41;5237071;28;20466;-75
2023/03/26 02:02:35;;;;;;;34.23;7.00;;;;;;;7.47;100.00;100509.38;5235313;28;20017;-75
2023/03/26 02:05:25;;;;;;;31.27;6.63;;;;;;;7.59;100.00;100500.06;5236417;28;20033;-75
2023/03/26 02:08:12;;;;;;;32.67;7.80;;;;;;;7.54;100.00;100503.84;5238144;28;20489;-75
2023/03/26 02:10:48;;;;;;;33.20;6.67;;;;;;;7.40;100.00;100486.34;5236538;28;20381;-74
2023/03/26 02:13:20;;;;;;;33.30;6.67;;;;;;;7.18;100.00;100480.47;5221521;28;20473;-74
2023/03/26 02:15:57;;;;;;;36.57;9.63;;;;;;;7.25;100.00;100476.63;5237724;28;20029;-75
2023/03/26 02:18:37;;;;;;;33.10;6.00;;;;;;;7.31;100.00;100479.84;5235577;28;20044;-75
2023/03/26 02:21:18;;;;;;;30.10;6.77;;;;;;;7.41;100.00;100475.84;5236259;28;20559;-76
2023/03/26 02:24:01;;;;;;;32.03;5.43;;;;;;;7.31;100.00;100477.22;5236230;28;20013;-75
2023/03/26 02:26:34;;;;;;;36.87;6.00;;;;;;;7.34;100.00;100479.66;5235921;28;20470;-75
2023/03/26 02:29:06;;;;;;;25.50;7.33;;;;;;;7.19;100.00;100471.72;5235817;28;20445;-76
2023/03/26 02:31:37;;;;;;;34.73;7.60;;;;;;;7.29;100.00;100460.84;5235999;28;20036;-75
2023/03/26 02:34:08;;;;;;;35.33;5.83;;;;;;;7.34;100.00;100464.03;5235556;28;20048;-75
2023/03/26 02:36:41;;;;;;;27.43;6.13;;;;;;;7.19;100.00;100463.91;5235885;28;20732;-75
2023/03/26 02:39:13;;;;;;;30.23;5.40;;;;;;;7.23;100.00;100448.97;5234772;28;20132;-76
2023/03/26 02:41:44;;;;;;;33.50;5.87;;;;;;;7.12;100.00;100444.34;5234966;28;20097;-75
2023/03/26 02:44:15;;;;;;;26.17;7.30;;;;;;;7.35;100.00;100457.91;5235350;28;20033;-75
2023/03/26 02:46:47;;;;;;;26.63;7.27;;;;;;;7.40;100.00;100448.06;5235350;28;20401;-75
2023/03/26 02:49:18;;;;;;;36.40;7.13;;;;;;;7.29;100.00;100440.00;5235401;28;20021;-75
2023/03/26 02:51:49;;;;;;;30.13;7.37;;;;;;;7.36;100.00;100441.38;5236037;28;20028;-75
2023/03/26 02:54:21;;;;;;;24.03;6.17;;;;;;;7.44;100.00;100438.34;5233963;28;20036;-75
2023/03/26 02:56:53;;;;;;;33.77;6.83;;;;;;;7.44;100.00;100428.75;5233451;28;20452;-75
2023/03/26 02:59:24;;;;;;;29.03;5.20;;;;;;;7.42;100.00;100420.19;5235174;28;20104;-75
2023/03/26 03:01:55;;;;;;;24.13;4.57;;;;;;;7.26;100.00;100413.19;5234573;28;20036;-75
2023/03/26 03:04:27;;;;;;;28.67;5.23;;;;;;;7.39;100.00;100420.34;5234692;28;20033;-75
2023/03/26 03:06:58;;;;;;;28.83;6.37;;;;;;;7.32;100.00;100405.97;5235456;28;20131;-75
2023/03/26 03:09:30;;;;;;;31.23;7.57;;;;;;;7.28;100.00;100412.28;5235503;28;20034;-75
2023/03/26 03:12:01;;;;;;;30.60;6.67;;;;;;;7.29;100.00;100400.94;5234743;28;20151;-75
2023/03/26 03:14:32;;;;;;;24.17;6.13;;;;;;;7.22;100.00;100383.03;5234641;28;20183;-75
2023/03/26 03:17:04;;;;;;;32.83;7.10;;;;;;;7.39;100.00;100399.50;5234065;28;20033;-75
2023/03/26 03:19:36;;;;;;;35.20;6.93;;;;;;;7.23;100.00;100373.44;5234945;28;20033;-75
2023/03/26 03:22:07;;;;;;;29.37;6.60;;;;;;;7.37;100.00;100380.50;5230329;28;20025;-75
2023/03/26 03:24:42;;;;;;;27.77;5.73;;;;;;;7.43;100.00;100382.81;5233351;28;20026;-76
2023/03/26 03:27:14;;;;;;;;;;;;;;;7.58;100.00;100385.47;5234419;28;20373;-76
2023/03/26 03:29:45;;;;;;;29.07;6.00;;;;;;;7.45;100.00;100378.31;5234633;28;19965;-76
2023/03/26 03:32:16;;;;;;;23.67;4.70;;;;;;;7.52;100.00;100386.66;5232592;28;20044;-76
2023/03/26 03:34:49;;;;;;;26.03;5.50;;;;;;;7.53;100.00;100377.06;5234621;28;20571;-75
2023/03/26 03:37:22;;;;;;;23.10;6.40;;;;;;;7.54;100.00;100376.16;5234670;28;20022;-75
2023/03/26 03:39:53;;;;;;;20.23;5.50;;;;;;;7.48;100.00;100367.75;5234168;28;20115;-76
2023/03/26 03:42:26;;;;;;;26.03;4.80;;;;;;;7.52;100.00;100375.41;5234331;28;20104;-75
2023/03/26 03:44:57;;;;;;;19.87;5.27;;;;;;;7.45;100.00;100373.09;5233628;28;20484;-75
2023/03/26 03:47:29;;;;;;;24.93;5.47;;;;;;;7.43;100.00;100358.50;5233988;28;20064;-76
2023/03/26 03:50:00;;;;;;;25.37;4.80;;;;;;;7.50;100.00;100365.88;5234273;28;20105;-75
2023/03/26 03:52:32;;;;;;;15.70;3.90;;;;;;;7.46;100.00;100359.19;5233757;28;20113;-76
2023/03/26 03:55:03;;;;;;;21.27;5.00;;;;;;;7.49;100.00;100348.56;5234004;28;20661;-75
2023/03/26 03:57:35;;;;;;;20.07;4.33;;;;;;;7.52;100.00;100351.94;5234382;28;20428;-75
2023/03/26 04:00:09;;;;;;;21.07;4.17;;;;;;;7.36;100.00;100324.13;5234102;28;20065;-75
2023/03/26 04:02:41;;;;;;;27.10;4.55;;;;;;;7.50;100.00;100345.03;5233487;28;20017;-75
2023/03/26 04:05:12;;;;;;;16.87;5.03;;;;;;;7.57;100.00;100339.50;5232042;28;20018;-75
2023/03/26 04:07:44;;;;;;;22.77;4.37;;;;;;;7.61;100.00;100336.63;5234286;28;20033;-75
2023/03/26 04:10:17;;;;;;;22.83;5.33;;;;;;;7.53;100.00;100338.81;5233309;28;20021;-75
2023/03/26 04:12:48;;;;;;;19.93;4.60;;;;;;;7.53;100.00;100322.34;5232251;28;20064;-76
2023/03/26 04:15:19;;;;;;;18.17;4.50;;;;;;;7.30;100.00;100311.41;5233797;28;20033;-76
2023/03/26 04:17:51;;;;;;;14.83;3.50;;;;;;;7.21;100.00;100294.56;5232838;28;20107;-76
2023/03/26 04:20:22;;;;;;;24.93;4.47;;;;;;;7.31;100.00;100302.69;5232171;28;20036;-74
2023/03/26 04:22:53;;;;;;;26.07;4.73;;;;;;;7.40;100.00;100296.16;5233742;28;20021;-75
2023/03/26 04:25:29;;;;;;;23.50;4.87;;;;;;;7.29;100.00;100289.75;5232742;28;20533;-75
2023/03/26 04:28:05;;;;;;;23.83;6.00;;;;;;;7.40;100.00;100286.53;5233384;28;20025;-75
2023/03/26 04:30:41;;;;;;;16.30;4.13;;;;;;;7.33;100.00;100285.22;5231865;28;20473;-75
2023/03/26 04:33:14;;;;;;;22.63;4.80;;;;;;;7.28;100.00;100288.06;5232521;28;20013;-75
2023/03/26 04:35:47;;;;;;;23.63;4.40;;;;;;;7.23;100.00;100272.69;5233413;28;20071;-75
2023/03/26 04:38:18;;;;;;;15.77;4.93;;;;;;;7.28;100.00;100269.00;5233686;28;20021;-74
2023/03/26 04:40:50;;;;;;;20.33;5.57;;;;;;;7.37;100.00;100260.66;5234092;28;20492;-74
2023/03/26 04:43:22;;;;;;;20.37;3.97;;;;;;;7.28;100.00;100258.59;5231099;28;20021;-74
2023/03/26 04:45:53;;;;;;;20.43;4.80;;;;;;;7.23;100.00;100244.03;5233716;28;20021;-74
2023/03/26 04:48:25;;;;;;;19.23;5.53;;;;;;;7.24;100.00;100253.53;5230977;28;20025;-75
2023/03/26 04:50:58;;;;;;;23.60;4.70;;;;;;;7.22;100.00;100244.97;5233786;28;20032;-75
2023/03/26 04:53:29;;;;;;;26.00;4.63;;;;;;;7.14;100.00;100244.53;5233327;28;20022;-75
2023/03/26 04:56:28;;;;;;;18.27;4.70;;;;;;;7.25;100.00;100246.56;5232688;28;20071;-75
2023/03/26 04:59:00;;;;;;;20.70;5.43;;;;;;;7.10;100.00;100228.25;5233173;28;20029;-74
2023/03/26 05:01:31;;;;;;;19.57;4.80;;;;;;;7.10;100.00;100232.63;5225061;28;20037;-76
2023/03/26 05:04:03;;;;;;;20.60;4.77;;;;;;;7.02;100.00;100240.84;5213039;28;20022;-74
2023/03/26 05:06:36;;;;;;;17.03;3.87;;;;;;;7.00;100.00;100227.91;5212702;28;20029;-74
2023/03/26 05:09:09;;;;;;;30.07;7.77;;;;;;;6.99;100.00;100215.84;5212778;28;20018;-74
2023/03/26 05:11:40;;;;;;;17.17;4.00;;;;;;;7.00;100.00;100211.44;5211284;28;20037;-74
2023/03/26 05:14:12;;;;;;;27.77;4.43;;;;;;;7.07;100.00;100211.97;5224277;28;20042;-73
2023/03/26 05:16:46;;;;;;;24.77;4.67;;;;;;;7.07;100.00;100219.78;5232713;28;20029;-75
2023/03/26 05:19:17;;;;;;;24.52;4.93;;;;;;;7.05;100.00;100216.44;5232001;28;20029;-75
2023/03/26 05:21:49;;;;;;;23.67;4.90;;;;;;;6.96;100.00;100208.19;5233935;28;20024;-75
2023/03/26 05:24:20;;;;;;;20.77;4.57;;;;;;;7.02;100.00;100201.78;5232301;28;20071;-76
2023/03/26 05:26:51;;;;;;;22.70;4.87;;;;;;;6.98;100.00;100197.69;5233113;28;20104;-76
2023/03/26 05:29:23;;;;;;;18.07;4.87;;;;;;;6.99;100.00;100189.81;5232785;28;20030;-76
2023/03/26 05:31:54;;;;;;;20.83;4.67;;;;;;;7.00;100.00;100190.63;5231143;28;20078;-75
2023/03/26 05:34:26;;;;;;;21.93;4.77;;;;;;;6.97;100.00;100178.63;5231538;28;20030;-76
2023/03/26 05:36:57;;;;;;;24.10;5.23;;;;;;;7.05;100.00;100185.19;5231428;28;20413;-76
2023/03/26 05:39:28;;;;;;;19.60;4.43;;;;;;;7.05;100.00;100178.19;5233771;28;20030;-76
2023/03/26 05:42:00;;;;;;;20.07;4.37;;;;;;;7.06;100.00;100181.63;5233281;28;20056;-76
2023/03/26 05:44:31;;;;;;;20.17;4.50;;;;;;;7.01;100.00;100172.34;5233498;28;20034;-76
2023/03/26 05:47:02;;;;;;;16.47;4.60;;;;;;;7.12;100.00;100173.50;5231033;28;20358;-75
2023/03/26 05:49:34;;;;;;;20.63;4.10;;;;;;;7.14;100.00;100166.41;5233077;28;20108;-75
2023/03/26 05:52:05;;;;;;;21.17;5.40;;;;;;;6.98;100.00;100171.66;5227437;28;20378;-75
2023/03/26 05:54:36;;;;;;;22.00;5.13;;;;;;;6.98;100.00;100167.28;5224400;28;20047;-75
2023/03/26 05:57:08;;;;;;;19.70;4.70;;;;;;;7.07;100.00;100159.91;5237103;28;20033;-75
2023/03/26 05:59:40;;;;;;;18.37;4.50;;;;;;;6.88;100.00;100155.69;5236995;28;20057;-76
2023/03/26 06:02:11;;;;;;;24.07;5.33;;;;;;;7.05;100.00;100152.16;5236570;28;20517;-76
2023/03/26 06:04:44;;;;;;;21.33;4.97;;;;;;;7.07;100.00;100150.31;5237628;28;20116;-76
2023/03/26 06:07:16;;;;;;;23.63;5.27;;;;;;;7.04;100.00;100139.22;5231185;28;20033;-76
2023/03/26 06:09:48;;;;;;;16.60;3.57;;;;;;;7.15;100.00;100147.28;5226500;28;20044;-76
2023/03/26 06:12:20;;;;;;;19.77;4.70;;;;;;;7.12;100.00;100144.84;5236615;28;20397;-75
2023/03/26 06:14:51;;;;;;;19.97;5.77;;;;;;;6.99;100.00;100124.72;5236886;28;20099;-75
2023/03/26 06:17:23;;;;;;;18.60;5.10;;;;;;;7.08;100.00;100131.16;5236355;28;20029;-75
2023/03/26 06:19:54;;;;;;;15.40;4.17;;;;;;;7.02;100.00;100114.13;5238221;28;20044;-76
2023/03/26 06:22:26;;;;;;;23.80;4.67;;;;;;;7.01;100.00;100125.47;5240559;28;20025;-76
2023/03/26 06:24:57;;;;;;;18.03;4.70;;;;;;;6.78;100.00;100103.31;5242250;28;20056;-76
2023/03/26 06:27:28;;;;;;;18.27;5.00;;;;;;;6.89;100.00;100126.16;5257808;28;20025;-75
2023/03/26 06:30:00;;;;;;;20.00;4.50;;;;;;;6.89;100.00;100131.38;5257360;28;20025;-75
2023/03/26 06:32:31;;;;;;;16.67;5.77;;;;;;;6.75;100.00;100130.38;5256318;28;20039;-76
2023/03/26 06:35:03;;;;;;;25.27;5.73;;;;;;;6.78;100.00;100119.78;5244835;28;20044;-75
2023/03/26 06:37:34;;;;;;;20.30;5.37;;;;;;;6.87;100.00;100123.66;5237735;28;20097;-75
2023/03/26 06:40:06;;;;;;;18.70;3.77;;;;;;;6.81;100.00;100128.34;5241166;28;20076;-74
2023/03/26 06:42:37;;;;;;;19.70;4.20;;;;;;;6.73;100.00;100124.41;5236339;28;20053;-75
2023/03/26 06:45:09;;;;;;;21.23;5.73;;;;;;;6.69;100.00;100132.44;5233765;28;20021;-75
2023/03/26 06:47:40;;;;;;;26.80;6.10;;;;;;;6.64;100.00;100117.94;5234587;28;20615;-74
2023/03/26 06:50:12;;;;;;;19.17;5.10;;;;;;;6.55;100.00;100118.44;5235613;28;20087;-75
2023/03/26 06:52:44;;;;;;;22.97;5.03;;;;;;;6.62;100.00;100134.56;5235975;28;20057;-74
2023/03/26 06:55:15;;;;;;;31.47;7.23;;;;;;;6.55;100.00;100126.25;5233871;28;20034;-75
2023/03/26 06:57:48;;;;;;;23.97;5.47;;;;;;;6.57;100.00;100126.16;5235576;28;20437;-75
2023/03/26 07:00:20;;;;;;;29.13;6.63;;;;;;;6.58;100.00;100138.25;5234564;28;20026;-75
2023/03/26 07:02:52;;;;;;;24.00;5.67;;;;;;;6.66;100.00;100120.47;5235154;28;20013;-75
2023/03/26 07:05:23;;;;;;;24.47;5.57;;;;;;;6.71;100.00;100123.66;5231493;28;20075;-75
2023/03/26 07:07:54;;;;;;;21.37;5.10;;;;;;;6.77;100.00;100128.50;5233906;28;20034;-74
2023/03/26 07:10:27;;;;;;;26.40;5.67;;;;;;;6.63;100.00;100125.84;5235010;28;20639;-75
2023/03/26 07:13:00;;;;;;;21.37;5.13;;;;;;;6.72;100.00;100125.31;5234663;28;20152;-75
2023/03/26 07:15:31;;;;;;;18.83;5.23;;;;;;;6.69;100.00;100120.28;5216101;28;20029;-74
2023/03/26 07:18:03;;;;;;;21.33;5.70;;;;;;;6.70;100.00;100118.53;5233753;28;20033;-74
2023/03/26 07:20:35;;;;;;;22.40;5.97;;;;;;;6.72;100.00;100114.09;5235363;28;20056;-74
2023/03/26 07:23:06;;;;;;;16.90;4.70;;;;;;;6.75;100.00;100106.94;5233971;28;20544;-74
2023/03/26 07:25:38;;;;;;;21.30;5.63;;;;;;;6.72;100.00;100109.69;5234574;28;20037;-73
2023/03/26 07:28:24;;;;;;;20.77;5.60;;;;;;;6.87;100.00;100102.81;5235034;28;20079;-74
2023/03/26 07:31:09;;;;;;;20.57;6.10;;;;;;;6.83;100.00;100103.06;5233236;28;20623;-75
2023/03/26 07:33:56;;;;;;;21.10;5.17;;;;;;;6.78;100.00;100103.31;5234171;28;20608;-74
2023/03/26 07:36:31;;;;;;;26.63;5.13;;;;;;;6.68;100.00;100095.19;5234231;28;20029;-74
2023/03/26 07:39:20;;;;;;;18.73;4.90;;;;;;;6.74;100.00;100097.44;5233898;28;20029;-74
2023/03/26 07:42:20;;;;;;;26.03;6.00;;;;;;;-150.27;100.00;61272.81;5234254;28;20377;-74
2023/03/26 07:45:26;;;;;;;25.83;5.83;;;;;;;6.83;100.00;100097.84;5233030;28;20042;-74
2023/03/26 07:48:14;;;;;;;24.17;6.73;;;;;;;-150.27;100.00;61272.81;5218894;28;20434;-74
2023/03/26 07:50:46;;;;;;;23.30;5.60;;;;;;;-150.27;100.00;61272.81;5234232;28;20048;-74
2023/03/26 07:53:18;;;;;;;27.70;6.20;;;;;;;-150.27;100.00;61272.81;5233233;28;20033;-75
2023/03/26 07:56:06;;;;;;;24.23;7.30;;;;;;;-150.27;100.00;61272.81;5234116;28;20033;-74
2023/03/26 07:59:04;;;;;;;22.27;6.30;;;;;;;-150.27;100.00;61272.81;5234324;28;20775;-74
2023/03/26 08:01:59;;;;;;;23.80;5.10;;;;;;;-150.27;100.00;61272.81;5232404;28;20025;-75
2023/03/26 08:04:50;;;;;;;20.13;6.55;;;;;;;8.17;100.00;100082.25;5229045;28;20034;-76
2023/03/26 08:08:04;;;;;;;25.97;6.67;;;;;;;-150.27;100.00;61272.81;5227711;28;20040;-74
2023/03/26 08:11:27;;;;;;;26.03;6.20;;;;;;;-150.27;100.00;61272.81;5224580;28;20045;-74
2023/03/26 08:13:58;;;;;;;21.90;5.83;;;;;;;-150.27;100.00;61272.81;5171007;28;20551;-75
2023/03/26 08:17:37;;;;;;;21.73;6.37;;;;;;;-150.27;100.00;61272.81;5214280;28;20076;-74
2023/03/26 08:20:33;;;;;;;21.40;5.60;;;;;;;-150.27;100.00;61272.81;5180245;28;20030;-75
2023/03/26 08:23:11;;;;;;;;;;;;;;;-150.27;100.00;61272.81;5189664;28;20027;-75
2023/03/26 08:25:54;;;;;;;22.20;6.50;;;;;;;-139.61;100.00;76776.13;5223170;28;20489;-75
2023/03/26 08:29:08;;;;;;;20.60;5.97;;;;;;;11.57;100.00;100067.88;5232649;28;20029;-75
2023/03/26 08:31:43;;;;;;;21.70;5.87;;;;;;;11.58;100.00;100064.31;5231884;28;20079;-76
2023/03/26 08:34:14;;;;;;;22.45;7.07;;;;;;;-150.27;100.00;61272.81;5232578;28;20065;-76
2023/03/26 08:36:47;;;;;;;20.87;5.53;;;;;;;11.40;100.00;100065.75;5233211;28;20451;-75
2023/03/26 08:39:21;;;;;;;20.43;5.43;;;;;;;11.24;100.00;100056.41;5233312;28;20477;-75
2023/03/26 08:42:13;;;;;;;20.70;5.93;;;;;;;-150.27;100.00;61272.81;5233688;28;20053;-74
2023/03/26 08:44:59;;;;;;;19.37;5.33;;;;;;;-150.27;100.00;61272.81;5233219;28;20070;-74
2023/03/26 08:47:42;;;;;;;21.00;5.60;;;;;;;-150.27;100.00;61272.81;5231913;28;20029;-75
2023/03/26 08:51:00;;;;;;;17.73;4.80;;;;;;;-150.27;100.00;61272.81;5231749;28;20044;-76
2023/03/26 08:53:54;;;;;;;16.60;4.53;;;;;;;-150.27;100.00;61272.81;5218199;28;20440;-75
2023/03/26 08:56:49;;;;;;;21.07;5.70;;;;;;;-150.27;100.00;61272.81;5231960;28;20113;-75
2023/03/26 08:59:56;;;;;;;24.67;11.50;;;;;;;-150.27;100.00;61272.81;5232416;28;20738;-73
2023/03/26 09:02:59;;;;;;;21.27;9.03;;;;;;;-150.27;100.00;61272.81;5230963;28;20387;-73
2023/03/26 09:06:01;;;;;;;15.33;6.57;;;;;;;-150.27;100.00;61272.81;5230593;28;20029;-73
2023/03/26 09:08:45;;;;;;;13.97;5.83;;;;;;;-150.27;100.00;61272.81;5232463;28;20503;-73
2023/03/26 09:11:35;;;;;;;15.87;5.67;;;;;;;-150.27;100.00;61272.81;5231555;28;20354;-73
2023/03/26 09:14:15;;;;;;;14.03;4.67;;;;;;;-150.27;100.00;61272.81;5219067;28;20279;-74
2023/03/26 09:17:17;;;;;;;13.03;4.00;;;;;;;-150.27;100.00;61272.81;5229062;28;20045;-72
2023/03/26 09:20:18;;;;;;;12.43;4.20;;;;;;;-150.27;100.00;61272.81;5232496;28;20029;-73
2023/03/26 09:22:58;;;;;;;12.60;4.63;;;;;;;-150.27;100.00;61272.81;5232621;28;20026;-72
2023/03/26 09:25:29;;;;;;;18.03;4.63;;;;;;;-150.27;100.00;61272.81;5232941;28;20035;-73
2023/03/26 09:28:27;;;;;;;13.50;3.77;;;;;;;-150.27;100.00;61272.81;5232785;28;20029;-73
2023/03/26 09:32:01;;;;;;;8.17;3.30;;;;;;;-150.27;100.00;61272.81;5235186;28;20052;-73
2023/03/26 09:35:14;;;;;;;11.73;3.53;;;;;;;-150.27;100.00;61272.81;5192837;28;20549;-74
2023/03/26 09:38:10;;;;;;;9.93;2.63;;;;;;;-150.27;100.00;61272.81;5233974;28;20108;-74
2023/03/26 09:41:07;;;;;;;;;;;;;;;-150.27;100.00;61272.81;5235858;28;20057;-74
2023/03/26 09:44:00;;;;;;;8.07;3.13;;;;;;;-150.27;100.00;61272.81;5235055;28;19921;-74
2023/03/26 09:46:56;;;;;;;9.03;2.63;;;;;;;-150.27;100.00;61272.81;5234812;28;20041;-74
2023/03/26 09:49:56;;;;;;;8.33;2.00;;;;;;;-150.27;100.00;61272.81;5229247;28;20816;-74
2023/03/26 09:53:03;;;;;;;6.37;2.60;;;;;;;-150.27;100.00;61272.81;5221890;28;20630;-74
2023/03/26 09:56:10;;;;;;;11.03;2.93;;;;;;;-150.27;100.00;61272.81;5212943;28;20359;-73
2023/03/26 09:58:58;;;;;;;7.70;2.53;;;;;;;-150.27;100.00;61272.81;5212733;28;20105;-74
2023/03/26 10:01:42;;;;;;;7.70;3.00;;;;;;;-150.27;100.00;61272.81;5210179;28;20350;-72
2023/03/26 10:04:39;;;;;;;10.85;2.67;;;;;;;-150.27;100.00;61272.81;5213777;28;20173;-74
2023/03/26 10:07:40;;;;;;;9.53;3.03;;;;;;;-150.27;100.00;61272.81;5213994;28;20034;-74
2023/03/26 10:10:49;;;;;;;8.03;2.40;;;;;;;-150.27;100.00;61272.81;5214470;28;20038;-74
2023/03/26 10:13:58;;;;;;;7.07;2.60;;;;;;;-150.27;100.00;61272.81;5231276;28;20076;-74
2023/03/26 10:16:39;;;;;;;5.43;1.70;;;;;;;-150.27;100.00;61272.81;5213540;28;20058;-74
2023/03/26 10:19:35;;;;;;;8.77;2.00;;;;;;;-150.27;100.00;61272.81;5223075;28;20040;-74
2023/03/26 10:22:40;;;;;;;8.97;2.17;;;;;;;-150.27;100.00;61272.81;5228971;28;20512;-74
2023/03/26 10:25:23;;;;;;;7.37;3.07;;;;;;;-150.27;100.00;61272.81;5230322;28;20057;-74
2023/03/26 10:28:24;;;;;;;6.23;1.40;;;;;;;-150.27;100.00;61272.81;5219739;28;20037;-73
2023/03/26 10:31:18;;;;;;;7.57;2.23;;;;;;;-150.27;100.00;61272.81;5230333;28;20045;-73
2023/03/26 10:34:08;;;;;;;7.50;2.03;;;;;;;-150.27;100.00;61272.81;5213063;28;20096;-73
2023/03/26 10:37:15;;;;;;;9.30;1.93;;;;;;;-150.27;100.00;61272.81;5215739;28;20041;-73
2023/03/26 10:40:12;;;;;;;3.73;1.57;;;;;;;-150.27;100.00;61272.81;5215956;28;21089;-73
2023/03/26 10:43:10;;;;;;;6.63;1.77;;;;;;;-150.27;100.00;61272.81;5228768;28;20036;-74
2023/03/26 10:46:05;;;;;;;7.77;1.70;;;;;;;-150.27;100.00;61272.81;5221597;28;20079;-74
2023/03/26 10:48:46;;;;;;;6.22;1.67;;;;;;;-150.27;100.00;61272.81;5216349;28;20541;-74
2023/03/26 10:51:50;;;;;;;3.63;1.27;;;;;;;-150.27;100.00;61272.81;5222823;28;20108;-75
2023/03/26 10:54:43;;;;;;;4.37;1.40;;;;;;;-150.27;100.00;61272.81;5232299;28;20409;-75
2023/03/26 10:57:25;;;;;;;5.60;1.60;;;;;;;-150.27;100.00;61272.81;5232845;28;20112;-74
2023/03/26 11:00:04;;;;;;;3.87;1.30;;;;;;;-150.27;100.00;61272.81;5233052;28;20033;-75
2023/03/26 11:02:42;;;;;;;2.53;1.20;;;;;;;-150.27;100.00;61272.81;5233171;28;20021;-74
2023/03/26 11:05:43;;;;;;;3.97;1.90;;;;;;;-150.27;100.00;61272.81;5232930;28;20026;-74
2023/03/26 11:08:37;;;;;;;6.43;2.60;;;;;;;-150.27;100.00;61272.81;5211090;28;20040;-74
2023/03/26 11:11:30;;;;;;;2.43;1.10;;;;;;;-150.27;100.00;61272.81;5200425;28;20496;-74
2023/03/26 11:14:16;;;;;;;3.27;1.07;;;;;;;-150.27;100.00;61272.81;5211704;28;20046;-75
2023/03/26 11:17:09;;;;;;;2.63;1.23;;;;;;;-150.27;100.00;61272.81;5212722;28;20511;-75
2023/03/26 11:20:05;;;;;;;3.47;0.90;;;;;;;-150.27;100.00;61272.81;5210630;28;20516;-74
2023/03/26 11:22:43;;;;;;;3.60;1.60;;;;;;;-150.27;100.00;61272.81;5213378;28;20192;-73
2023/03/26 11:25:36;;;;;;;3.60;1.33;;;;;;;-150.27;100.00;61272.81;5224124;28;20140;-74
2023/03/26 11:28:15;;;;;;;3.07;0.87;;;;;;;-150.27;100.00;61272.81;5228794;28;20037;-74
2023/03/26 11:30:57;;;;;;;3.53;1.63;;;;;;;-150.27;100.00;61272.81;5225930;28;20026;-75
2023/03/26 11:33:36;;;;;;;3.60;1.10;;;;;;;-150.27;100.00;61272.81;5231492;28;20037;-75
2023/03/26 11:36:13;;;;;;;3.23;0.97;;;;;;;-150.27;100.00;61272.81;5220007;28;20079;-74
2023/03/26 11:38:48;;;;;;;3.70;1.20;;;;;;;-150.27;100.00;61272.81;5217745;28;20022;-75
2023/03/26 11:41:22;;;;;;;2.10;1.27;;;;;;;-150.27;100.00;61272.81;5220660;28;20033;-75
2023/03/26 11:44:02;;;;;;;4.00;1.42;;;;;;;-150.27;100.00;61272.81;5233347;28;20107;-75
2023/03/26 11:46:39;;;;;;;4.37;0.90;;;;;;;-150.27;100.00;61272.81;5232685;28;20084;-75
2023/03/26 11:49:15;;;;;;;1.73;1.10;;;;;;;-150.27;100.00;61272.81;5226725;28;20026;-76
2023/03/26 11:51:48;;;;;;;3.03;1.20;;;;;;;-150.27;100.00;61272.81;5221214;28;20354;-76
2023/03/26 11:54:19;;;;;;;3.50;1.20;;;;;;;-150.27;100.00;61272.81;5231832;28;20029;-75
2023/03/26 11:57:07;;;;;;;2.83;1.10;;;;;;;-150.27;100.00;61272.81;5232720;28;20416;-74
2023/03/26 11:59:49;;;;;;;6.43;1.30;;;;;;;-150.27;100.00;61272.81;5232838;28;20108;-74
2023/03/26 12:02:38;;;;;;;3.00;1.17;;;;;;;-150.27;100.00;61272.81;5231902;28;20099;-74
2023/03/26 12:05:25;;;;;;;3.73;1.50;;;;;;;-150.27;100.00;61272.81;5231919;28;20436;-74
2023/03/26 12:08:02;;;;;;;6.03;1.30;;;;;;;-150.27;100.00;61272.81;5246492;28;20030;-75
2023/03/26 12:10:41;;;;;;;5.13;1.40;;;;;;;-150.27;100.00;61272.81;5232092;28;20036;-78
2023/03/26 12:13:35;;;;;;;10.60;5.63;;;;;;;-150.27;100.00;61272.81;5232941;28;20068;-76
2023/03/26 12:16:16;;;;;;;6.83;3.40;;;;;;;-150.27;100.00;61272.81;5222186;28;20362;-75